sensor_id;sensor_type;location;lat;lon;timestamp;temperature;humidity
28460;DHT22;32528;45.712;9.192;2023-04-01T00:01:16;9.10;99.90
28460;DHT22;32528;45.712;9.192;2023-04-01T00:03:17;9.10;99.90
28460;DHT22;32528;45.712;9.192;2023-04-01T00:05:18;9.10;99.90
28460;DHT22;32528;45.712;9.192;2023-04-01T00:07:19;9.00;99.90
28460;DHT22;32528;45.712;9.192;2023-04-01T00:09:19;9.00;99.90
28460;DHT22;32528;45.712;9.192;2023-04-01T00:11:20;8.90;99.90
28460;DHT22;32528;45.712;9.192;2023-04-01T00:13:21;8.90;99.90
28460;DHT22;32528;45.712;9.192;2023-04-01T00:15:22;8.90;99.90
28460;DHT22;32528;45.712;9.192;2023-04-01T00:17:23;8.90;99.90
28460;DHT22;32528;45.712;9.192;2023-04-01T00:19:23;8.80;99.90
28460;DHT22;32528;45.712;9.192;2023-04-01T00:21:25;8.80;99.90
28460;DHT22;32528;45.712;9.192;2023-04-01T00:23:26;8.80;99.90
28460;DHT22;32528;45.712;9.192;2023-04-01T00:25:26;8.60;99.90
28460;DHT22;32528;45.712;9.192;2023-04-01T00:27:27;8.40;99.90
28460;DHT22;32528;45.712;9.192;2023-04-01T00:29:28;8.40;99.90
28460;DHT22;32528;45.712;9.192;2023-04-01T00:31:30;8.30;99.90
28460;DHT22;32528;45.712;9.192;2023-04-01T00:33:31;8.10;99.90
28460;DHT22;32528;45.712;9.192;2023-04-01T00:35:32;8.10;99.90
28460;DHT22;32528;45.712;9.192;2023-04-01T00:37:34;8.00;99.90
28460;DHT22;32528;45.712;9.192;2023-04-01T00:39:35;8.00;99.90
28460;DHT22;32528;45.712;9.192;2023-04-01T00:41:36;7.90;99.90
28460;DHT22;32528;45.712;9.192;2023-04-01T00:43:37;7.80;99.90
28460;DHT22;32528;45.712;9.192;2023-04-01T00:45:39;7.80;99.90
28460;DHT22;32528;45.712;9.192;2023-04-01T00:47:40;7.70;99.90
28460;DHT22;32528;45.712;9.192;2023-04-01T00:49:42;7.70;99.90
28460;DHT22;32528;45.712;9.192;2023-04-01T01:05:01;7.40;99.90
28460;DHT22;32528;45.712;9.192;2023-04-01T01:11:40;7.40;99.90
28460;DHT22;32528;45.712;9.192;2023-04-01T01:14:09;7.40;99.90
28460;DHT22;32528;45.712;9.192;2023-04-01T01:16:35;7.40;99.90
28460;DHT22;32528;45.712;9.192;2023-04-01T01:27:29;7.40;99.90
28460;DHT22;32528;45.712;9.192;2023-04-01T01:34:13;7.30;99.90
28460;DHT22;32528;45.712;9.192;2023-04-01T01:36:17;7.20;99.90
28460;DHT22;32528;45.712;9.192;2023-04-01T01:38:23;7.20;99.90
28460;DHT22;32528;45.712;9.192;2023-04-01T01:40:37;7.20;99.90
28460;DHT22;32528;45.712;9.192;2023-04-01T01:42:42;7.10;99.90
28460;DHT22;32528;45.712;9.192;2023-04-01T01:44:47;7.20;99.90
28460;DHT22;32528;45.712;9.192;2023-04-01T01:46:49;7.10;99.90
28460;DHT22;32528;45.712;9.192;2023-04-01T01:48:52;7.20;99.90
28460;DHT22;32528;45.712;9.192;2023-04-01T01:50:52;7.20;99.90
28460;DHT22;32528;45.712;9.192;2023-04-01T01:53:02;7.20;99.90
28460;DHT22;32528;45.712;9.192;2023-04-01T01:55:34;7.20;99.90
28460;DHT22;32528;45.712;9.192;2023-04-01T01:57:38;7.20;99.90
28460;DHT22;32528;45.712;9.192;2023-04-01T01:59:46;7.20;99.90
28460;DHT22;32528;45.712;9.192;2023-04-01T02:01:54;7.20;99.90
28460;DHT22;32528;45.712;9.192;2023-04-01T02:03:57;7.10;99.90
28460;DHT22;32528;45.712;9.192;2023-04-01T02:06:00;7.10;99.90
28460;DHT22;32528;45.712;9.192;2023-04-01T02:08:06;7.00;99.90
28460;DHT22;32528;45.712;9.192;2023-04-01T02:10:08;7.00;99.90
28460;DHT22;32528;45.712;9.192;2023-04-01T02:12:11;7.00;99.90
28460;DHT22;32528;45.712;9.192;2023-04-01T02:14:52;7.00;99.90
28460;DHT22;32528;45.712;9.192;2023-04-01T02:16:58;7.10;99.90
28460;DHT22;32528;45.712;9.192;2023-04-01T02:19:02;7.20;99.90
28460;DHT22;32528;45.712;9.192;2023-04-01T02:21:08;7.30;99.90
28460;DHT22;32528;45.712;9.192;2023-04-01T02:23:09;7.30;99.90
28460;DHT22;32528;45.712;9.192;2023-04-01T02:25:15;7.40;99.90
28460;DHT22;32528;45.712;9.192;2023-04-01T02:27:16;7.40;99.90
28460;DHT22;32528;45.712;9.192;2023-04-01T02:29:20;7.40;99.90
28460;DHT22;32528;45.712;9.192;2023-04-01T02:31:22;7.40;99.90
28460;DHT22;32528;45.712;9.192;2023-04-01T02:33:25;7.40;99.90
28460;DHT22;32528;45.712;9.192;2023-04-01T02:35:26;7.40;99.90
28460;DHT22;32528;45.712;9.192;2023-04-01T02:37:27;7.50;99.90
28460;DHT22;32528;45.712;9.192;2023-04-01T02:39:28;7.40;99.90
28460;DHT22;32528;45.712;9.192;2023-04-01T02:41:29;7.40;99.90
28460;DHT22;32528;45.712;9.192;2023-04-01T02:43:29;7.40;99.90
28460;DHT22;32528;45.712;9.192;2023-04-01T02:45:30;7.30;99.90
28460;DHT22;32528;45.712;9.192;2023-04-01T02:47:31;7.20;99.90
28460;DHT22;32528;45.712;9.192;2023-04-01T02:49:32;7.20;99.90
28460;DHT22;32528;45.712;9.192;2023-04-01T02:51:32;7.10;99.90
28460;DHT22;32528;45.712;9.192;2023-04-01T02:53:33;7.00;99.90
28460;DHT22;32528;45.712;9.192;2023-04-01T02:55:34;6.90;99.90
28460;DHT22;32528;45.712;9.192;2023-04-01T02:57:35;6.80;99.90
28460;DHT22;32528;45.712;9.192;2023-04-01T02:59:36;6.80;99.90
28460;DHT22;32528;45.712;9.192;2023-04-01T03:01:37;6.90;99.90
28460;DHT22;32528;45.712;9.192;2023-04-01T03:03:38;7.00;99.90
28460;DHT22;32528;45.712;9.192;2023-04-01T03:05:39;7.00;99.90
28460;DHT22;32528;45.712;9.192;2023-04-01T03:07:39;7.00;99.90
28460;DHT22;32528;45.712;9.192;2023-04-01T03:09:40;6.90;99.90
28460;DHT22;32528;45.712;9.192;2023-04-01T03:11:41;6.80;99.90
28460;DHT22;32528;45.712;9.192;2023-04-01T03:13:44;6.70;99.90
28460;DHT22;32528;45.712;9.192;2023-04-01T03:15:45;6.70;99.90
28460;DHT22;32528;45.712;9.192;2023-04-01T03:17:46;6.60;99.90
28460;DHT22;32528;45.712;9.192;2023-04-01T03:19:47;6.50;99.90
28460;DHT22;32528;45.712;9.192;2023-04-01T03:21:49;6.40;99.90
28460;DHT22;32528;45.712;9.192;2023-04-01T03:23:50;6.30;99.90
28460;DHT22;32528;45.712;9.192;2023-04-01T03:25:52;6.20;99.90
28460;DHT22;32528;45.712;9.192;2023-04-01T03:27:52;6.20;99.90
28460;DHT22;32528;45.712;9.192;2023-04-01T03:29:53;6.10;99.90
28460;DHT22;32528;45.712;9.192;2023-04-01T03:31:54;6.30;99.90
28460;DHT22;32528;45.712;9.192;2023-04-01T03:33:59;6.20;99.90
28460;DHT22;32528;45.712;9.192;2023-04-01T03:35:59;6.20;99.90
28460;DHT22;32528;45.712;9.192;2023-04-01T03:38:00;6.20;99.90
28460;DHT22;32528;45.712;9.192;2023-04-01T03:40:01;6.20;99.90
28460;DHT22;32528;45.712;9.192;2023-04-01T03:42:03;6.20;99.90
28460;DHT22;32528;45.712;9.192;2023-04-01T03:44:04;6.10;99.90
28460;DHT22;32528;45.712;9.192;2023-04-01T03:46:05;6.20;99.90
28460;DHT22;32528;45.712;9.192;2023-04-01T03:48:05;6.20;99.90
28460;DHT22;32528;45.712;9.192;2023-04-01T03:50:08;6.20;99.90
28460;DHT22;32528;45.712;9.192;2023-04-01T03:52:11;6.20;99.90
28460;DHT22;32528;45.712;9.192;2023-04-01T03:54:13;6.30;99.90
28460;DHT22;32528;45.712;9.192;2023-04-01T03:56:14;6.30;99.90
28460;DHT22;32528;45.712;9.192;2023-04-01T03:58:15;6.20;99.90
28460;DHT22;32528;45.712;9.192;2023-04-01T04:00:16;6.10;99.90
28460;DHT22;32528;45.712;9.192;2023-04-01T04:02:20;6.20;99.90
28460;DHT22;32528;45.712;9.192;2023-04-01T04:04:21;6.10;99.90
28460;DHT22;32528;45.712;9.192;2023-04-01T04:06:23;6.10;99.90
28460;DHT22;32528;45.712;9.192;2023-04-01T04:08:24;6.10;99.90
28460;DHT22;32528;45.712;9.192;2023-04-01T04:10:25;6.10;99.90
28460;DHT22;32528;45.712;9.192;2023-04-01T04:12:26;6.00;99.90
28460;DHT22;32528;45.712;9.192;2023-04-01T04:14:28;6.10;99.90
28460;DHT22;32528;45.712;9.192;2023-04-01T04:16:28;6.00;99.90
28460;DHT22;32528;45.712;9.192;2023-04-01T04:18:36;6.00;99.90
28460;DHT22;32528;45.712;9.192;2023-04-01T04:20:44;6.00;99.90
28460;DHT22;32528;45.712;9.192;2023-04-01T04:22:46;6.10;99.90
28460;DHT22;32528;45.712;9.192;2023-04-01T04:24:47;6.00;99.90
28460;DHT22;32528;45.712;9.192;2023-04-01T04:26:48;6.00;99.90
28460;DHT22;32528;45.712;9.192;2023-04-01T04:28:48;5.90;99.90
28460;DHT22;32528;45.712;9.192;2023-04-01T04:30:53;5.90;99.90
28460;DHT22;32528;45.712;9.192;2023-04-01T04:32:54;5.90;99.90
28460;DHT22;32528;45.712;9.192;2023-04-01T04:34:56;5.80;99.90
28460;DHT22;32528;45.712;9.192;2023-04-01T04:36:56;5.70;99.90
28460;DHT22;32528;45.712;9.192;2023-04-01T04:39:03;5.80;99.90
28460;DHT22;32528;45.712;9.192;2023-04-01T04:41:10;5.60;99.90
28460;DHT22;32528;45.712;9.192;2023-04-01T04:43:14;5.70;99.90
28460;DHT22;32528;45.712;9.192;2023-04-01T04:45:16;5.60;99.90
28460;DHT22;32528;45.712;9.192;2023-04-01T04:47:26;5.60;99.90
28460;DHT22;32528;45.712;9.192;2023-04-01T04:49:27;5.60;99.90
28460;DHT22;32528;45.712;9.192;2023-04-01T04:51:27;5.70;99.90
28460;DHT22;32528;45.712;9.192;2023-04-01T04:53:30;5.70;99.90
28460;DHT22;32528;45.712;9.192;2023-04-01T04:55:31;5.70;99.90
28460;DHT22;32528;45.712;9.192;2023-04-01T04:57:51;5.70;99.90
28460;DHT22;32528;45.712;9.192;2023-04-01T04:59:51;5.70;99.90
28460;DHT22;32528;45.712;9.192;2023-04-01T05:02:12;5.60;99.90
28460;DHT22;32528;45.712;9.192;2023-04-01T05:04:13;5.70;99.90
28460;DHT22;32528;45.712;9.192;2023-04-01T05:06:15;5.70;99.90
28460;DHT22;32528;45.712;9.192;2023-04-01T05:08:17;5.80;99.90
28460;DHT22;32528;45.712;9.192;2023-04-01T05:10:18;5.70;99.90
28460;DHT22;32528;45.712;9.192;2023-04-01T05:12:19;5.80;99.90
28460;DHT22;32528;45.712;9.192;2023-04-01T05:14:39;5.80;99.90
28460;DHT22;32528;45.712;9.192;2023-04-01T05:16:44;5.80;99.90
28460;DHT22;32528;45.712;9.192;2023-04-01T05:18:45;5.80;99.90
28460;DHT22;32528;45.712;9.192;2023-04-01T05:20:51;5.80;99.90
28460;DHT22;32528;45.712;9.192;2023-04-01T05:23:01;5.90;99.90
28460;DHT22;32528;45.712;9.192;2023-04-01T05:25:02;5.80;99.90
28460;DHT22;32528;45.712;9.192;2023-04-01T05:27:03;5.80;99.90
28460;DHT22;32528;45.712;9.192;2023-04-01T05:29:04;6.00;99.90
28460;DHT22;32528;45.712;9.192;2023-04-01T05:31:06;6.00;99.90
28460;DHT22;32528;45.712;9.192;2023-04-01T05:33:13;5.90;99.90
28460;DHT22;32528;45.712;9.192;2023-04-01T05:35:14;6.00;99.90
28460;DHT22;32528;45.712;9.192;2023-04-01T05:37:15;6.10;99.90
28460;DHT22;32528;45.712;9.192;2023-04-01T05:39:15;6.00;99.90
28460;DHT22;32528;45.712;9.192;2023-04-01T05:41:17;6.00;99.90
28460;DHT22;32528;45.712;9.192;2023-04-01T05:43:20;5.90;99.90
28460;DHT22;32528;45.712;9.192;2023-04-01T05:45:23;5.90;99.90
28460;DHT22;32528;45.712;9.192;2023-04-01T05:47:53;6.10;99.90
28460;DHT22;32528;45.712;9.192;2023-04-01T05:49:54;6.10;99.90
28460;DHT22;32528;45.712;9.192;2023-04-01T05:51:56;6.20;99.90
28460;DHT22;32528;45.712;9.192;2023-04-01T05:53:57;6.30;99.90
28460;DHT22;32528;45.712;9.192;2023-04-01T05:56:02;6.30;99.90
28460;DHT22;32528;45.712;9.192;2023-04-01T05:58:04;6.30;99.90
28460;DHT22;32528;45.712;9.192;2023-04-01T06:00:06;6.40;99.90
28460;DHT22;32528;45.712;9.192;2023-04-01T06:02:12;6.50;99.90
28460;DHT22;32528;45.712;9.192;2023-04-01T06:04:16;6.70;99.90
28460;DHT22;32528;45.712;9.192;2023-04-01T06:06:29;6.70;99.90
28460;DHT22;32528;45.712;9.192;2023-04-01T06:08:43;6.80;99.90
28460;DHT22;32528;45.712;9.192;2023-04-01T06:13:21;7.00;99.90
28460;DHT22;32528;45.712;9.192;2023-04-01T06:15:41;7.10;99.90
28460;DHT22;32528;45.712;9.192;2023-04-01T06:20:28;7.40;99.90
28460;DHT22;32528;45.712;9.192;2023-04-01T06:32:20;8.10;99.90
28460;DHT22;32528;45.712;9.192;2023-04-01T06:37:48;8.50;99.90
28460;DHT22;32528;45.712;9.192;2023-04-01T06:41:33;8.70;99.90
28460;DHT22;32528;45.712;9.192;2023-04-01T06:43:59;8.90;99.90
28460;DHT22;32528;45.712;9.192;2023-04-01T06:46:35;9.40;99.90
28460;DHT22;32528;45.712;9.192;2023-04-01T06:49:25;9.80;99.90
28460;DHT22;32528;45.712;9.192;2023-04-01T06:51:59;10.20;99.90
28460;DHT22;32528;45.712;9.192;2023-04-01T06:54:26;10.20;99.90
28460;DHT22;32528;45.712;9.192;2023-04-01T06:56:37;10.30;99.90
28460;DHT22;32528;45.712;9.192;2023-04-01T07:00:59;10.50;99.90
28460;DHT22;32528;45.712;9.192;2023-04-01T07:03:17;10.60;99.90
28460;DHT22;32528;45.712;9.192;2023-04-01T07:05:21;10.70;99.90
28460;DHT22;32528;45.712;9.192;2023-04-01T07:09:41;10.90;99.90
28460;DHT22;32528;45.712;9.192;2023-04-01T07:12:09;11.10;99.90
28460;DHT22;32528;45.712;9.192;2023-04-01T07:14:36;11.50;99.90
28460;DHT22;32528;45.712;9.192;2023-04-01T07:16:49;11.70;99.90
28460;DHT22;32528;45.712;9.192;2023-04-01T07:18:57;11.90;99.90
28460;DHT22;32528;45.712;9.192;2023-04-01T07:21:29;12.30;99.90
28460;DHT22;32528;45.712;9.192;2023-04-01T07:23:39;12.60;99.90
28460;DHT22;32528;45.712;9.192;2023-04-01T07:26:24;12.80;98.20
28460;DHT22;32528;45.712;9.192;2023-04-01T07:28:39;13.10;98.70
28460;DHT22;32528;45.712;9.192;2023-04-01T07:32:59;13.30;97.00
28460;DHT22;32528;45.712;9.192;2023-04-01T07:39:43;13.60;96.00
28460;DHT22;32528;45.712;9.192;2023-04-01T07:44:34;13.90;95.00
28460;DHT22;32528;45.712;9.192;2023-04-01T07:49:14;14.20;95.10
28460;DHT22;32528;45.712;9.192;2023-04-01T07:51:17;14.20;95.00
28460;DHT22;32528;45.712;9.192;2023-04-01T08:02:58;14.80;93.20
28460;DHT22;32528;45.712;9.192;2023-04-01T08:05:11;14.70;92.20
28460;DHT22;32528;45.712;9.192;2023-04-01T08:07:20;14.70;92.70
28460;DHT22;32528;45.712;9.192;2023-04-01T08:13:05;14.70;92.10
28460;DHT22;32528;45.712;9.192;2023-04-01T08:18:19;14.40;91.20
28460;DHT22;32528;45.712;9.192;2023-04-01T08:23:32;14.40;91.80
28460;DHT22;32528;45.712;9.192;2023-04-01T08:25:27;14.40;91.00
28460;DHT22;32528;45.712;9.192;2023-04-01T08:27:44;14.40;90.80
28460;DHT22;32528;45.712;9.192;2023-04-01T08:30:00;14.50;90.70
28460;DHT22;32528;45.712;9.192;2023-04-01T08:32:27;14.40;90.60
28460;DHT22;32528;45.712;9.192;2023-04-01T08:34:36;14.50;89.50
28460;DHT22;32528;45.712;9.192;2023-04-01T08:36:43;14.50;90.00
28460;DHT22;32528;45.712;9.192;2023-04-01T08:38:57;14.50;90.20
28460;DHT22;32528;45.712;9.192;2023-04-01T08:41:36;14.60;90.00
28460;DHT22;32528;45.712;9.192;2023-04-01T09:03:20;14.90;85.50
28460;DHT22;32528;45.712;9.192;2023-04-01T09:21:41;15.30;83.80
28460;DHT22;32528;45.712;9.192;2023-04-01T09:29:30;15.60;81.50
28460;DHT22;32528;45.712;9.192;2023-04-01T09:37:18;15.80;82.50
28460;DHT22;32528;45.712;9.192;2023-04-01T09:41:32;15.90;80.80
28460;DHT22;32528;45.712;9.192;2023-04-01T09:44:02;16.00;79.90
28460;DHT22;32528;45.712;9.192;2023-04-01T09:46:30;16.00;79.40
28460;DHT22;32528;45.712;9.192;2023-04-01T09:51:07;16.00;75.70
28460;DHT22;32528;45.712;9.192;2023-04-01T09:58:19;16.20;73.90
28460;DHT22;32528;45.712;9.192;2023-04-01T10:03:54;16.30;71.70
28460;DHT22;32528;45.712;9.192;2023-04-01T10:08:36;16.40;71.90
28460;DHT22;32528;45.712;9.192;2023-04-01T10:16:03;16.70;72.20
28460;DHT22;32528;45.712;9.192;2023-04-01T10:36:17;17.10;59.60
28460;DHT22;32528;45.712;9.192;2023-04-01T10:48:55;17.60;57.60
28460;DHT22;32528;45.712;9.192;2023-04-01T10:53:31;17.70;56.00
28460;DHT22;32528;45.712;9.192;2023-04-01T11:14:36;18.40;53.30
28460;DHT22;32528;45.712;9.192;2023-04-01T11:19:34;18.80;52.10
28460;DHT22;32528;45.712;9.192;2023-04-01T11:21:50;19.00;48.50
28460;DHT22;32528;45.712;9.192;2023-04-01T11:36:59;20.10;49.80
28460;DHT22;32528;45.712;9.192;2023-04-01T11:41:49;20.30;48.30
28460;DHT22;32528;45.712;9.192;2023-04-01T11:44:22;20.30;45.50
28460;DHT22;32528;45.712;9.192;2023-04-01T11:47:01;20.20;46.00
28460;DHT22;32528;45.712;9.192;2023-04-01T12:00:12;20.80;45.30
28460;DHT22;32528;45.712;9.192;2023-04-01T12:04:38;20.70;46.40
28460;DHT22;32528;45.712;9.192;2023-04-01T12:20:39;21.20;45.80
28460;DHT22;32528;45.712;9.192;2023-04-01T12:28:15;21.20;44.70
28460;DHT22;32528;45.712;9.192;2023-04-01T12:32:45;21.40;44.20
28460;DHT22;32528;45.712;9.192;2023-04-01T12:35:01;21.50;45.50
28460;DHT22;32528;45.712;9.192;2023-04-01T12:46:26;21.10;45.90
28460;DHT22;32528;45.712;9.192;2023-04-01T12:55:51;20.60;44.70
28460;DHT22;32528;45.712;9.192;2023-04-01T13:14:13;20.80;42.00
28460;DHT22;32528;45.712;9.192;2023-04-01T13:16:39;20.90;42.70
28460;DHT22;32528;45.712;9.192;2023-04-01T13:21:12;21.50;43.60
28460;DHT22;32528;45.712;9.192;2023-04-01T13:26:55;21.40;41.50
28460;DHT22;32528;45.712;9.192;2023-04-01T13:28:32;21.30;40.70
28460;DHT22;32528;45.712;9.192;2023-04-01T13:30:43;21.30;42.60
28460;DHT22;32528;45.712;9.192;2023-04-01T13:42:28;21.10;40.80
28460;DHT22;32528;45.712;9.192;2023-04-01T13:49:12;21.30;43.60
28460;DHT22;32528;45.712;9.192;2023-04-01T13:51:28;21.40;44.10
28460;DHT22;32528;45.712;9.192;2023-04-01T14:00:47;21.50;40.90
28460;DHT22;32528;45.712;9.192;2023-04-01T14:08:33;21.20;43.40
28460;DHT22;32528;45.712;9.192;2023-04-01T14:10:46;21.40;43.60
28460;DHT22;32528;45.712;9.192;2023-04-01T14:13:02;21.60;44.30
28460;DHT22;32528;45.712;9.192;2023-04-01T14:15:29;21.60;43.40
28460;DHT22;32528;45.712;9.192;2023-04-01T14:19:48;21.80;44.20
28460;DHT22;32528;45.712;9.192;2023-04-01T14:24:52;22.00;42.10
28460;DHT22;32528;45.712;9.192;2023-04-01T14:27:18;22.00;42.60
28460;DHT22;32528;45.712;9.192;2023-04-01T14:38:51;22.20;42.70
28460;DHT22;32528;45.712;9.192;2023-04-01T14:43:47;22.40;42.70
28460;DHT22;32528;45.712;9.192;2023-04-01T14:46:06;22.60;42.30
28460;DHT22;32528;45.712;9.192;2023-04-01T14:50:52;23.00;41.50
28460;DHT22;32528;45.712;9.192;2023-04-01T14:53:28;23.10;43.10
28460;DHT22;32528;45.712;9.192;2023-04-01T14:55:31;23.10;41.70
28460;DHT22;32528;45.712;9.192;2023-04-01T14:57:33;23.10;40.90
28460;DHT22;32528;45.712;9.192;2023-04-01T15:00:00;23.10;39.90
28460;DHT22;32528;45.712;9.192;2023-04-01T15:05:02;23.20;38.20
28460;DHT22;32528;45.712;9.192;2023-04-01T15:07:27;23.20;39.30
28460;DHT22;32528;45.712;9.192;2023-04-01T15:23:46;23.20;40.00
28460;DHT22;32528;45.712;9.192;2023-04-01T15:33:36;25.90;38.40
28460;DHT22;32528;45.712;9.192;2023-04-01T15:36:07;26.60;35.80
28460;DHT22;32528;45.712;9.192;2023-04-01T15:38:33;26.70;34.80
28460;DHT22;32528;45.712;9.192;2023-04-01T15:41:05;27.20;33.90
28460;DHT22;32528;45.712;9.192;2023-04-01T15:45:46;27.60;33.90
28460;DHT22;32528;45.712;9.192;2023-04-01T15:48:01;27.70;35.00
28460;DHT22;32528;45.712;9.192;2023-04-01T15:52:11;27.20;34.40
28460;DHT22;32528;45.712;9.192;2023-04-01T15:59:04;32.60;31.50
28460;DHT22;32528;45.712;9.192;2023-04-01T16:03:42;35.40;29.30
28460;DHT22;32528;45.712;9.192;2023-04-01T16:13:26;39.30;26.40
28460;DHT22;32528;45.712;9.192;2023-04-01T16:20:24;43.10;24.00
28460;DHT22;32528;45.712;9.192;2023-04-01T16:22:38;43.70;24.70
28460;DHT22;32528;45.712;9.192;2023-04-01T16:27:04;36.00;26.10
28460;DHT22;32528;45.712;9.192;2023-04-01T16:33:47;41.00;24.70
28460;DHT22;32528;45.712;9.192;2023-04-01T16:38:21;42.30;25.40
28460;DHT22;32528;45.712;9.192;2023-04-01T16:41:05;43.50;23.70
28460;DHT22;32528;45.712;9.192;2023-04-01T16:43:19;42.50;23.00
28460;DHT22;32528;45.712;9.192;2023-04-01T16:45:35;42.30;24.60
28460;DHT22;32528;45.712;9.192;2023-04-01T16:47:54;43.60;23.40
28460;DHT22;32528;45.712;9.192;2023-04-01T16:56:24;42.80;23.80
28460;DHT22;32528;45.712;9.192;2023-04-01T16:58:36;40.70;24.10
28460;DHT22;32528;45.712;9.192;2023-04-01T17:00:41;36.50;24.20
28460;DHT22;32528;45.712;9.192;2023-04-01T17:05:14;30.30;28.20
28460;DHT22;32528;45.712;9.192;2023-04-01T17:09:50;27.20;30.00
28460;DHT22;32528;45.712;9.192;2023-04-01T17:17:11;24.30;33.60
28460;DHT22;32528;45.712;9.192;2023-04-01T17:32:15;21.80;38.50
28460;DHT22;32528;45.712;9.192;2023-04-01T17:45:21;20.30;41.80
28460;DHT22;32528;45.712;9.192;2023-04-01T17:49:47;19.90;41.60
28460;DHT22;32528;45.712;9.192;2023-04-01T18:00:47;19.10;44.80
28460;DHT22;32528;45.712;9.192;2023-04-01T18:18:46;18.20;48.20
28460;DHT22;32528;45.712;9.192;2023-04-01T18:23:14;17.90;49.20
28460;DHT22;32528;45.712;9.192;2023-04-01T18:25:34;17.80;49.50
28460;DHT22;32528;45.712;9.192;2023-04-01T18:27:46;17.60;49.90
28460;DHT22;32528;45.712;9.192;2023-04-01T18:30:02;17.50;50.50
28460;DHT22;32528;45.712;9.192;2023-04-01T18:36:55;17.20;51.70
28460;DHT22;32528;45.712;9.192;2023-04-01T18:39:17;17.00;51.90
28460;DHT22;32528;45.712;9.192;2023-04-01T18:43:40;16.70;53.40
28460;DHT22;32528;45.712;9.192;2023-04-01T18:46:03;16.60;53.10
28460;DHT22;32528;45.712;9.192;2023-04-01T18:50:38;16.40;54.70
28460;DHT22;32528;45.712;9.192;2023-04-01T18:52:42;16.30;54.70
28460;DHT22;32528;45.712;9.192;2023-04-01T18:54:45;16.20;54.80
28460;DHT22;32528;45.712;9.192;2023-04-01T18:56:48;16.10;54.00
28460;DHT22;32528;45.712;9.192;2023-04-01T18:58:59;16.20;53.90
28460;DHT22;32528;45.712;9.192;2023-04-01T19:01:26;16.10;53.90
28460;DHT22;32528;45.712;9.192;2023-04-01T19:03:45;15.90;54.50
28460;DHT22;32528;45.712;9.192;2023-04-01T19:05:51;15.80;54.80
28460;DHT22;32528;45.712;9.192;2023-04-01T19:07:53;15.80;55.40
28460;DHT22;32528;45.712;9.192;2023-04-01T19:09:54;15.70;56.60
28460;DHT22;32528;45.712;9.192;2023-04-01T19:14:44;15.50;57.60
28460;DHT22;32528;45.712;9.192;2023-04-01T19:17:10;15.40;57.40
28460;DHT22;32528;45.712;9.192;2023-04-01T19:27:37;15.30;59.10
28460;DHT22;32528;45.712;9.192;2023-04-01T19:30:04;15.20;59.50
28460;DHT22;32528;45.712;9.192;2023-04-01T19:39:58;14.70;59.90
28460;DHT22;32528;45.712;9.192;2023-04-01T19:51:13;14.00;62.70
28460;DHT22;32528;45.712;9.192;2023-04-01T19:53:45;13.90;63.30
28460;DHT22;32528;45.712;9.192;2023-04-01T19:56:16;13.80;63.00
28460;DHT22;32528;45.712;9.192;2023-04-01T20:00:57;13.70;63.50
28460;DHT22;32528;45.712;9.192;2023-04-01T20:05:21;13.60;62.90
28460;DHT22;32528;45.712;9.192;2023-04-01T20:07:37;13.50;63.50
28460;DHT22;32528;45.712;9.192;2023-04-01T20:14:48;13.20;64.70
28460;DHT22;32528;45.712;9.192;2023-04-01T20:19:02;13.00;63.70
28460;DHT22;32528;45.712;9.192;2023-04-01T20:21:24;12.90;63.80
28460;DHT22;32528;45.712;9.192;2023-04-01T20:26:19;12.80;65.10
28460;DHT22;32528;45.712;9.192;2023-04-01T20:28:43;12.70;66.10
28460;DHT22;32528;45.712;9.192;2023-04-01T20:35:36;12.40;67.00
28460;DHT22;32528;45.712;9.192;2023-04-01T20:37:46;12.30;66.80
28460;DHT22;32528;45.712;9.192;2023-04-01T20:45:14;12.20;68.40
28460;DHT22;32528;45.712;9.192;2023-04-01T20:49:44;12.00;67.50
28460;DHT22;32528;45.712;9.192;2023-04-01T21:01:02;11.80;68.10
28460;DHT22;32528;45.712;9.192;2023-04-01T21:03:26;11.80;68.60
28460;DHT22;32528;45.712;9.192;2023-04-01T21:12:37;11.50;69.30
28460;DHT22;32528;45.712;9.192;2023-04-01T21:19:40;11.30;69.50
28460;DHT22;32528;45.712;9.192;2023-04-01T21:28:54;11.20;69.40
28460;DHT22;32528;45.712;9.192;2023-04-01T21:35:39;11.20;69.40
28460;DHT22;32528;45.712;9.192;2023-04-01T21:40:09;11.10;71.30
28460;DHT22;32528;45.712;9.192;2023-04-01T22:06:38;10.60;72.70
28460;DHT22;32528;45.712;9.192;2023-04-01T22:08:46;10.60;72.80
28460;DHT22;32528;45.712;9.192;2023-04-01T22:11:31;10.50;71.90
28460;DHT22;32528;45.712;9.192;2023-04-01T22:18:06;10.50;72.50
28460;DHT22;32528;45.712;9.192;2023-04-01T22:25:01;10.40;73.40
28460;DHT22;32528;45.712;9.192;2023-04-01T22:31:51;10.30;73.50
28460;DHT22;32528;45.712;9.192;2023-04-01T22:34:57;10.30;73.40
28460;DHT22;32528;45.712;9.192;2023-04-01T22:41:50;10.30;73.50
28460;DHT22;32528;45.712;9.192;2023-04-01T22:43:57;10.30;74.00
28460;DHT22;32528;45.712;9.192;2023-04-01T22:50:54;10.20;74.30
28460;DHT22;32528;45.712;9.192;2023-04-01T22:55:27;10.10;74.60
28460;DHT22;32528;45.712;9.192;2023-04-01T22:57:47;10.20;74.30
28460;DHT22;32528;45.712;9.192;2023-04-01T23:00:15;10.30;74.20
28460;DHT22;32528;45.712;9.192;2023-04-01T23:02:28;10.40;73.80
28460;DHT22;32528;45.712;9.192;2023-04-01T23:04:33;10.50;73.40
28460;DHT22;32528;45.712;9.192;2023-04-01T23:06:46;10.40;73.80
28460;DHT22;32528;45.712;9.192;2023-04-01T23:08:59;10.30;74.10
28460;DHT22;32528;45.712;9.192;2023-04-01T23:11:05;10.20;74.40
28460;DHT22;32528;45.712;9.192;2023-04-01T23:13:12;10.00;74.80
28460;DHT22;32528;45.712;9.192;2023-04-01T23:15:15;9.90;75.60
28460;DHT22;32528;45.712;9.192;2023-04-01T23:17:19;9.90;76.10
28460;DHT22;32528;45.712;9.192;2023-04-01T23:19:43;9.80;75.80
28460;DHT22;32528;45.712;9.192;2023-04-01T23:21:52;9.70;75.60
28460;DHT22;32528;45.712;9.192;2023-04-01T23:26:21;9.70;75.40
28460;DHT22;32528;45.712;9.192;2023-04-01T23:28:46;9.70;76.20
28460;DHT22;32528;45.712;9.192;2023-04-01T23:30:49;9.60;77.50
28460;DHT22;32528;45.712;9.192;2023-04-01T23:32:50;9.50;77.10
28460;DHT22;32528;45.712;9.192;2023-04-01T23:34:52;9.60;76.20
28460;DHT22;32528;45.712;9.192;2023-04-01T23:37:04;9.70;76.30
28460;DHT22;32528;45.712;9.192;2023-04-01T23:41:32;9.70;76.30
28460;DHT22;32528;45.712;9.192;2023-04-01T23:43:37;9.70;77.00
28460;DHT22;32528;45.712;9.192;2023-04-01T23:45:41;9.70;76.90
28460;DHT22;32528;45.712;9.192;2023-04-01T23:47:43;9.70;76.60
28460;DHT22;32528;45.712;9.192;2023-04-01T23:49:48;9.70;77.30
28460;DHT22;32528;45.712;9.192;2023-04-01T23:56:56;9.70;77.20
28460;DHT22;32528;45.712;9.192;2023-04-01T23:58:57;9.80;77.40
